sensor_id;sensor_type;location;lat;lon;timestamp;P1;durP1;ratioP1;P2;durP2;ratioP2
20441;SDS011;10380;52.102;20.614;2022-12-07T00:01:38;27.20;;;14.90;;
20441;SDS011;10380;52.102;20.614;2022-12-07T00:04:08;25.03;;;15.67;;
20441;SDS011;10380;52.102;20.614;2022-12-07T00:06:38;26.50;;;15.13;;
20441;SDS011;10380;52.102;20.614;2022-12-07T00:09:09;23.23;;;13.20;;
20441;SDS011;10380;52.102;20.614;2022-12-07T00:11:38;23.23;;;12.93;;
20441;SDS011;10380;52.102;20.614;2022-12-07T00:14:06;19.27;;;11.80;;
20441;SDS011;10380;52.102;20.614;2022-12-07T00:16:37;19.57;;;12.03;;
20441;SDS011;10380;52.102;20.614;2022-12-07T00:19:05;22.37;;;12.30;;
20441;SDS011;10380;52.102;20.614;2022-12-07T00:21:32;20.77;;;11.00;;
20441;SDS011;10380;52.102;20.614;2022-12-07T00:24:01;16.90;;;9.70;;
20441;SDS011;10380;52.102;20.614;2022-12-07T00:26:31;21.67;;;12.87;;
20441;SDS011;10380;52.102;20.614;2022-12-07T00:29:05;20.77;;;12.20;;
20441;SDS011;10380;52.102;20.614;2022-12-07T00:31:39;25.83;;;14.17;;
20441;SDS011;10380;52.102;20.614;2022-12-07T00:34:07;24.03;;;13.37;;
20441;SDS011;10380;52.102;20.614;2022-12-07T00:36:38;28.23;;;14.00;;
20441;SDS011;10380;52.102;20.614;2022-12-07T00:39:05;27.43;;;14.10;;
20441;SDS011;10380;52.102;20.614;2022-12-07T00:41:34;20.67;;;11.07;;
20441;SDS011;10380;52.102;20.614;2022-12-07T00:44:01;20.50;;;10.93;;
20441;SDS011;10380;52.102;20.614;2022-12-07T00:46:28;15.43;;;8.63;;
20441;SDS011;10380;52.102;20.614;2022-12-07T00:48:56;18.73;;;10.33;;
20441;SDS011;10380;52.102;20.614;2022-12-07T00:51:24;18.47;;;10.77;;
20441;SDS011;10380;52.102;20.614;2022-12-07T00:53:52;16.73;;;10.17;;
20441;SDS011;10380;52.102;20.614;2022-12-07T00:56:24;14.93;;;9.93;;
20441;SDS011;10380;52.102;20.614;2022-12-07T00:58:57;14.27;;;9.83;;
20441;SDS011;10380;52.102;20.614;2022-12-07T01:01:26;15.60;;;9.77;;
20441;SDS011;10380;52.102;20.614;2022-12-07T01:03:56;15.90;;;10.10;;
20441;SDS011;10380;52.102;20.614;2022-12-07T01:06:23;15.10;;;9.73;;
20441;SDS011;10380;52.102;20.614;2022-12-07T01:08:51;15.77;;;9.30;;
20441;SDS011;10380;52.102;20.614;2022-12-07T01:11:23;16.33;;;9.77;;
20441;SDS011;10380;52.102;20.614;2022-12-07T01:13:53;17.73;;;11.10;;
20441;SDS011;10380;52.102;20.614;2022-12-07T01:16:21;14.03;;;9.47;;
20441;SDS011;10380;52.102;20.614;2022-12-07T01:18:50;15.10;;;9.47;;
20441;SDS011;10380;52.102;20.614;2022-12-07T01:21:19;16.30;;;11.17;;
20441;SDS011;10380;52.102;20.614;2022-12-07T01:23:51;17.07;;;10.23;;
20441;SDS011;10380;52.102;20.614;2022-12-07T01:26:20;17.37;;;10.73;;
20441;SDS011;10380;52.102;20.614;2022-12-07T01:28:49;17.60;;;11.37;;
20441;SDS011;10380;52.102;20.614;2022-12-07T01:31:18;14.90;;;9.30;;
20441;SDS011;10380;52.102;20.614;2022-12-07T01:33:49;13.70;;;8.93;;
20441;SDS011;10380;52.102;20.614;2022-12-07T01:38:49;18.03;;;9.20;;
20441;SDS011;10380;52.102;20.614;2022-12-07T01:41:19;16.17;;;8.97;;
20441;SDS011;10380;52.102;20.614;2022-12-07T01:46:37;10.13;;;7.03;;
20441;SDS011;10380;52.102;20.614;2022-12-07T01:49:07;15.67;;;7.07;;
20441;SDS011;10380;52.102;20.614;2022-12-07T01:51:38;13.03;;;8.77;;
20441;SDS011;10380;52.102;20.614;2022-12-07T01:54:08;14.93;;;6.97;;
20441;SDS011;10380;52.102;20.614;2022-12-07T01:56:38;10.23;;;5.90;;
20441;SDS011;10380;52.102;20.614;2022-12-07T02:01:51;9.20;;;6.90;;
20441;SDS011;10380;52.102;20.614;2022-12-07T02:04:19;10.47;;;6.77;;
20441;SDS011;10380;52.102;20.614;2022-12-07T02:06:48;10.70;;;6.87;;
20441;SDS011;10380;52.102;20.614;2022-12-07T02:09:19;11.60;;;6.10;;
20441;SDS011;10380;52.102;20.614;2022-12-07T02:11:47;9.23;;;5.60;;
20441;SDS011;10380;52.102;20.614;2022-12-07T02:14:14;7.40;;;5.67;;
20441;SDS011;10380;52.102;20.614;2022-12-07T02:16:44;9.20;;;5.90;;
20441;SDS011;10380;52.102;20.614;2022-12-07T02:27:47;8.90;;;5.83;;
20441;SDS011;10380;52.102;20.614;2022-12-07T02:30:23;8.60;;;5.60;;
20441;SDS011;10380;52.102;20.614;2022-12-07T02:33:03;11.53;;;4.97;;
20441;SDS011;10380;52.102;20.614;2022-12-07T02:35:32;7.13;;;4.57;;
20441;SDS011;10380;52.102;20.614;2022-12-07T02:41:16;7.33;;;4.90;;
20441;SDS011;10380;52.102;20.614;2022-12-07T02:46:54;8.90;;;5.40;;
20441;SDS011;10380;52.102;20.614;2022-12-07T02:49:24;9.90;;;5.63;;
20441;SDS011;10380;52.102;20.614;2022-12-07T02:51:53;9.37;;;5.07;;
20441;SDS011;10380;52.102;20.614;2022-12-07T02:54:24;9.60;;;5.50;;
20441;SDS011;10380;52.102;20.614;2022-12-07T03:00:11;9.33;;;6.00;;
20441;SDS011;10380;52.102;20.614;2022-12-07T03:05:37;9.87;;;6.13;;
20441;SDS011;10380;52.102;20.614;2022-12-07T03:19:03;10.90;;;6.93;;
20441;SDS011;10380;52.102;20.614;2022-12-07T03:21:47;10.77;;;7.03;;
20441;SDS011;10380;52.102;20.614;2022-12-07T03:24:21;12.07;;;6.50;;
20441;SDS011;10380;52.102;20.614;2022-12-07T03:26:52;10.23;;;6.90;;
20441;SDS011;10380;52.102;20.614;2022-12-07T03:29:29;9.00;;;6.87;;
20441;SDS011;10380;52.102;20.614;2022-12-07T03:32:03;10.63;;;6.50;;
20441;SDS011;10380;52.102;20.614;2022-12-07T03:37:36;10.47;;;6.87;;
20441;SDS011;10380;52.102;20.614;2022-12-07T03:40:16;10.87;;;6.67;;
20441;SDS011;10380;52.102;20.614;2022-12-07T03:42:50;9.23;;;6.43;;
20441;SDS011;10380;52.102;20.614;2022-12-07T03:45:20;9.23;;;6.93;;
20441;SDS011;10380;52.102;20.614;2022-12-07T03:47:56;8.20;;;6.37;;
20441;SDS011;10380;52.102;20.614;2022-12-07T03:50:54;9.20;;;6.90;;
20441;SDS011;10380;52.102;20.614;2022-12-07T03:53:36;9.97;;;6.93;;
20441;SDS011;10380;52.102;20.614;2022-12-07T03:56:13;10.53;;;6.43;;
20441;SDS011;10380;52.102;20.614;2022-12-07T03:58:41;9.17;;;7.07;;
20441;SDS011;10380;52.102;20.614;2022-12-07T04:01:10;10.13;;;7.17;;
20441;SDS011;10380;52.102;20.614;2022-12-07T04:03:37;10.43;;;6.90;;
20441;SDS011;10380;52.102;20.614;2022-12-07T04:06:05;8.93;;;6.13;;
20441;SDS011;10380;52.102;20.614;2022-12-07T04:08:32;11.53;;;7.07;;
20441;SDS011;10380;52.102;20.614;2022-12-07T04:10:59;12.37;;;7.20;;
20441;SDS011;10380;52.102;20.614;2022-12-07T04:13:27;8.80;;;7.20;;
20441;SDS011;10380;52.102;20.614;2022-12-07T04:15:54;10.00;;;6.83;;
20441;SDS011;10380;52.102;20.614;2022-12-07T04:18:21;8.97;;;6.60;;
20441;SDS011;10380;52.102;20.614;2022-12-07T04:20:48;10.33;;;6.80;;
20441;SDS011;10380;52.102;20.614;2022-12-07T04:23:15;10.63;;;6.87;;
20441;SDS011;10380;52.102;20.614;2022-12-07T04:25:43;9.97;;;7.13;;
20441;SDS011;10380;52.102;20.614;2022-12-07T04:28:10;11.87;;;8.13;;
20441;SDS011;10380;52.102;20.614;2022-12-07T04:30:38;11.87;;;7.50;;
20441;SDS011;10380;52.102;20.614;2022-12-07T04:33:05;12.70;;;7.60;;
20441;SDS011;10380;52.102;20.614;2022-12-07T04:35:31;11.50;;;8.23;;
20441;SDS011;10380;52.102;20.614;2022-12-07T04:37:58;9.73;;;6.53;;
20441;SDS011;10380;52.102;20.614;2022-12-07T04:40:25;15.83;;;8.87;;
20441;SDS011;10380;52.102;20.614;2022-12-07T04:42:54;11.70;;;7.93;;
20441;SDS011;10380;52.102;20.614;2022-12-07T04:45:20;14.37;;;7.93;;
20441;SDS011;10380;52.102;20.614;2022-12-07T04:47:48;12.60;;;8.77;;
20441;SDS011;10380;52.102;20.614;2022-12-07T04:50:14;14.53;;;8.63;;
20441;SDS011;10380;52.102;20.614;2022-12-07T04:52:42;15.00;;;8.37;;
20441;SDS011;10380;52.102;20.614;2022-12-07T04:55:09;13.60;;;8.37;;
20441;SDS011;10380;52.102;20.614;2022-12-07T04:57:36;16.93;;;11.40;;
20441;SDS011;10380;52.102;20.614;2022-12-07T05:00:03;36.13;;;21.73;;
20441;SDS011;10380;52.102;20.614;2022-12-07T05:02:30;34.50;;;21.53;;
20441;SDS011;10380;52.102;20.614;2022-12-07T05:04:57;21.87;;;13.00;;
20441;SDS011;10380;52.102;20.614;2022-12-07T05:07:24;16.73;;;10.63;;
20441;SDS011;10380;52.102;20.614;2022-12-07T05:09:51;23.40;;;12.33;;
20441;SDS011;10380;52.102;20.614;2022-12-07T05:12:18;14.20;;;9.77;;
20441;SDS011;10380;52.102;20.614;2022-12-07T05:14:45;17.83;;;10.03;;
20441;SDS011;10380;52.102;20.614;2022-12-07T05:17:12;14.87;;;9.90;;
20441;SDS011;10380;52.102;20.614;2022-12-07T05:19:39;16.13;;;10.80;;
20441;SDS011;10380;52.102;20.614;2022-12-07T05:22:06;14.87;;;10.57;;
20441;SDS011;10380;52.102;20.614;2022-12-07T05:27:03;17.07;;;11.30;;
20441;SDS011;10380;52.102;20.614;2022-12-07T05:29:32;18.03;;;11.20;;
20441;SDS011;10380;52.102;20.614;2022-12-07T05:31:59;18.17;;;10.67;;
20441;SDS011;10380;52.102;20.614;2022-12-07T05:34:26;20.80;;;11.07;;
20441;SDS011;10380;52.102;20.614;2022-12-07T05:36:53;18.63;;;11.33;;
20441;SDS011;10380;52.102;20.614;2022-12-07T05:39:20;18.27;;;12.70;;
20441;SDS011;10380;52.102;20.614;2022-12-07T05:41:47;17.47;;;10.57;;
20441;SDS011;10380;52.102;20.614;2022-12-07T05:44:33;18.13;;;11.57;;
20441;SDS011;10380;52.102;20.614;2022-12-07T05:46:59;18.47;;;11.33;;
20441;SDS011;10380;52.102;20.614;2022-12-07T05:49:27;16.37;;;10.33;;
20441;SDS011;10380;52.102;20.614;2022-12-07T05:51:54;17.73;;;11.40;;
20441;SDS011;10380;52.102;20.614;2022-12-07T05:54:21;20.77;;;12.50;;
20441;SDS011;10380;52.102;20.614;2022-12-07T05:56:49;18.93;;;11.97;;
20441;SDS011;10380;52.102;20.614;2022-12-07T05:59:17;17.50;;;11.73;;
20441;SDS011;10380;52.102;20.614;2022-12-07T06:01:50;18.70;;;11.30;;
20441;SDS011;10380;52.102;20.614;2022-12-07T06:04:26;17.57;;;10.37;;
20441;SDS011;10380;52.102;20.614;2022-12-07T06:06:55;19.17;;;11.33;;
20441;SDS011;10380;52.102;20.614;2022-12-07T06:09:23;15.93;;;10.70;;
20441;SDS011;10380;52.102;20.614;2022-12-07T06:11:52;17.57;;;10.53;;
20441;SDS011;10380;52.102;20.614;2022-12-07T06:14:37;17.83;;;10.27;;
20441;SDS011;10380;52.102;20.614;2022-12-07T06:17:06;18.30;;;10.53;;
20441;SDS011;10380;52.102;20.614;2022-12-07T06:19:34;17.53;;;11.00;;
20441;SDS011;10380;52.102;20.614;2022-12-07T06:22:02;21.43;;;11.30;;
20441;SDS011;10380;52.102;20.614;2022-12-07T06:24:31;20.97;;;11.17;;
20441;SDS011;10380;52.102;20.614;2022-12-07T06:26:58;18.43;;;11.10;;
20441;SDS011;10380;52.102;20.614;2022-12-07T06:29:25;21.57;;;10.07;;
20441;SDS011;10380;52.102;20.614;2022-12-07T06:31:52;20.43;;;10.17;;
20441;SDS011;10380;52.102;20.614;2022-12-07T06:34:20;18.37;;;11.13;;
20441;SDS011;10380;52.102;20.614;2022-12-07T06:36:51;19.20;;;11.30;;
20441;SDS011;10380;52.102;20.614;2022-12-07T06:39:20;20.67;;;10.93;;
20441;SDS011;10380;52.102;20.614;2022-12-07T06:41:47;22.23;;;11.60;;
20441;SDS011;10380;52.102;20.614;2022-12-07T06:44:14;18.23;;;10.20;;
20441;SDS011;10380;52.102;20.614;2022-12-07T06:46:41;21.13;;;11.07;;
20441;SDS011;10380;52.102;20.614;2022-12-07T06:49:08;23.47;;;11.70;;
20441;SDS011;10380;52.102;20.614;2022-12-07T06:51:35;20.37;;;12.83;;
20441;SDS011;10380;52.102;20.614;2022-12-07T06:54:03;25.57;;;12.33;;
20441;SDS011;10380;52.102;20.614;2022-12-07T06:56:31;19.43;;;10.80;;
20441;SDS011;10380;52.102;20.614;2022-12-07T06:58:59;19.47;;;12.07;;
20441;SDS011;10380;52.102;20.614;2022-12-07T07:01:26;16.57;;;10.30;;
20441;SDS011;10380;52.102;20.614;2022-12-07T07:03:53;19.37;;;11.23;;
20441;SDS011;10380;52.102;20.614;2022-12-07T07:06:21;17.83;;;11.00;;
20441;SDS011;10380;52.102;20.614;2022-12-07T07:08:48;19.13;;;10.53;;
20441;SDS011;10380;52.102;20.614;2022-12-07T07:11:15;15.27;;;9.87;;
20441;SDS011;10380;52.102;20.614;2022-12-07T07:13:44;14.23;;;9.67;;
20441;SDS011;10380;52.102;20.614;2022-12-07T07:16:11;18.73;;;11.10;;
20441;SDS011;10380;52.102;20.614;2022-12-07T07:18:39;14.90;;;9.73;;
20441;SDS011;10380;52.102;20.614;2022-12-07T07:21:06;14.57;;;8.93;;
20441;SDS011;10380;52.102;20.614;2022-12-07T07:23:32;14.83;;;9.00;;
20441;SDS011;10380;52.102;20.614;2022-12-07T07:25:59;14.87;;;9.30;;
20441;SDS011;10380;52.102;20.614;2022-12-07T07:28:26;15.77;;;10.17;;
20441;SDS011;10380;52.102;20.614;2022-12-07T07:30:53;20.30;;;11.27;;
20441;SDS011;10380;52.102;20.614;2022-12-07T07:33:20;16.07;;;8.83;;
20441;SDS011;10380;52.102;20.614;2022-12-07T07:35:46;23.83;;;12.83;;
20441;SDS011;10380;52.102;20.614;2022-12-07T07:38:13;22.67;;;13.27;;
20441;SDS011;10380;52.102;20.614;2022-12-07T07:40:40;22.33;;;10.70;;
20441;SDS011;10380;52.102;20.614;2022-12-07T07:43:07;15.53;;;10.43;;
20441;SDS011;10380;52.102;20.614;2022-12-07T07:45:35;16.97;;;9.80;;
20441;SDS011;10380;52.102;20.614;2022-12-07T07:48:02;14.77;;;9.83;;
20441;SDS011;10380;52.102;20.614;2022-12-07T07:50:29;16.20;;;10.77;;
20441;SDS011;10380;52.102;20.614;2022-12-07T07:52:57;20.03;;;10.63;;
20441;SDS011;10380;52.102;20.614;2022-12-07T07:55:24;20.37;;;12.13;;
20441;SDS011;10380;52.102;20.614;2022-12-07T07:57:51;17.30;;;10.73;;
20441;SDS011;10380;52.102;20.614;2022-12-07T08:00:20;16.77;;;10.53;;
20441;SDS011;10380;52.102;20.614;2022-12-07T08:02:48;18.27;;;10.20;;
20441;SDS011;10380;52.102;20.614;2022-12-07T08:05:15;14.27;;;8.83;;
20441;SDS011;10380;52.102;20.614;2022-12-07T08:07:42;18.57;;;9.50;;
20441;SDS011;10380;52.102;20.614;2022-12-07T08:10:10;15.50;;;8.10;;
20441;SDS011;10380;52.102;20.614;2022-12-07T08:12:39;16.23;;;8.20;;
20441;SDS011;10380;52.102;20.614;2022-12-07T08:15:26;16.03;;;9.17;;
20441;SDS011;10380;52.102;20.614;2022-12-07T08:17:55;12.73;;;8.77;;
20441;SDS011;10380;52.102;20.614;2022-12-07T08:20:23;16.57;;;8.77;;
20441;SDS011;10380;52.102;20.614;2022-12-07T08:22:50;17.87;;;9.40;;
20441;SDS011;10380;52.102;20.614;2022-12-07T08:25:17;14.33;;;9.17;;
20441;SDS011;10380;52.102;20.614;2022-12-07T08:27:45;17.20;;;10.83;;
20441;SDS011;10380;52.102;20.614;2022-12-07T08:30:12;17.43;;;10.60;;
20441;SDS011;10380;52.102;20.614;2022-12-07T08:32:39;16.43;;;9.20;;
20441;SDS011;10380;52.102;20.614;2022-12-07T08:35:06;16.70;;;9.63;;
20441;SDS011;10380;52.102;20.614;2022-12-07T08:37:34;21.63;;;10.57;;
20441;SDS011;10380;52.102;20.614;2022-12-07T08:40:02;16.23;;;8.93;;
20441;SDS011;10380;52.102;20.614;2022-12-07T08:42:30;20.67;;;10.17;;
20441;SDS011;10380;52.102;20.614;2022-12-07T08:45:08;19.57;;;10.47;;
20441;SDS011;10380;52.102;20.614;2022-12-07T08:47:40;13.70;;;7.73;;
20441;SDS011;10380;52.102;20.614;2022-12-07T08:50:11;20.57;;;10.87;;
20441;SDS011;10380;52.102;20.614;2022-12-07T08:52:39;18.43;;;11.67;;
20441;SDS011;10380;52.102;20.614;2022-12-07T08:55:09;21.90;;;11.13;;
20441;SDS011;10380;52.102;20.614;2022-12-07T08:57:37;23.20;;;11.43;;
20441;SDS011;10380;52.102;20.614;2022-12-07T09:00:05;23.13;;;11.03;;
20441;SDS011;10380;52.102;20.614;2022-12-07T09:02:33;22.80;;;11.27;;
20441;SDS011;10380;52.102;20.614;2022-12-07T09:05:00;18.03;;;9.43;;
20441;SDS011;10380;52.102;20.614;2022-12-07T09:07:27;18.50;;;10.43;;
20441;SDS011;10380;52.102;20.614;2022-12-07T09:09:55;22.13;;;11.83;;
20441;SDS011;10380;52.102;20.614;2022-12-07T09:12:22;22.53;;;12.87;;
20441;SDS011;10380;52.102;20.614;2022-12-07T09:14:49;20.20;;;10.30;;
20441;SDS011;10380;52.102;20.614;2022-12-07T09:17:16;17.10;;;10.33;;
20441;SDS011;10380;52.102;20.614;2022-12-07T09:19:43;16.57;;;9.30;;
20441;SDS011;10380;52.102;20.614;2022-12-07T09:22:10;19.37;;;10.40;;
20441;SDS011;10380;52.102;20.614;2022-12-07T09:24:37;18.47;;;10.50;;
20441;SDS011;10380;52.102;20.614;2022-12-07T09:27:05;19.83;;;11.17;;
20441;SDS011;10380;52.102;20.614;2022-12-07T09:29:32;22.83;;;10.87;;
20441;SDS011;10380;52.102;20.614;2022-12-07T09:31:59;15.60;;;9.70;;
20441;SDS011;10380;52.102;20.614;2022-12-07T09:34:32;15.00;;;9.70;;
20441;SDS011;10380;52.102;20.614;2022-12-07T09:37:00;18.57;;;8.90;;
20441;SDS011;10380;52.102;20.614;2022-12-07T09:39:29;19.43;;;10.90;;
20441;SDS011;10380;52.102;20.614;2022-12-07T09:41:56;15.80;;;9.47;;
20441;SDS011;10380;52.102;20.614;2022-12-07T09:44:25;15.00;;;8.57;;
20441;SDS011;10380;52.102;20.614;2022-12-07T09:46:53;17.90;;;10.57;;
20441;SDS011;10380;52.102;20.614;2022-12-07T09:49:22;17.10;;;10.60;;
20441;SDS011;10380;52.102;20.614;2022-12-07T09:54:37;16.60;;;10.93;;
20441;SDS011;10380;52.102;20.614;2022-12-07T09:57:07;15.13;;;10.70;;
20441;SDS011;10380;52.102;20.614;2022-12-07T09:59:37;18.30;;;9.73;;
20441;SDS011;10380;52.102;20.614;2022-12-07T10:02:21;16.53;;;10.63;;
20441;SDS011;10380;52.102;20.614;2022-12-07T10:05:03;14.07;;;8.90;;
20441;SDS011;10380;52.102;20.614;2022-12-07T10:07:32;12.33;;;8.27;;
20441;SDS011;10380;52.102;20.614;2022-12-07T10:09:59;13.77;;;9.27;;
20441;SDS011;10380;52.102;20.614;2022-12-07T10:12:29;12.93;;;9.37;;
20441;SDS011;10380;52.102;20.614;2022-12-07T10:15:00;17.57;;;10.20;;
20441;SDS011;10380;52.102;20.614;2022-12-07T10:17:48;12.37;;;8.23;;
20441;SDS011;10380;52.102;20.614;2022-12-07T10:22:55;12.53;;;7.80;;
20441;SDS011;10380;52.102;20.614;2022-12-07T10:25:27;16.13;;;9.50;;
20441;SDS011;10380;52.102;20.614;2022-12-07T10:28:00;14.07;;;9.40;;
20441;SDS011;10380;52.102;20.614;2022-12-07T10:30:29;14.40;;;10.53;;
20441;SDS011;10380;52.102;20.614;2022-12-07T10:32:57;12.93;;;8.97;;
20441;SDS011;10380;52.102;20.614;2022-12-07T10:35:26;16.23;;;10.67;;
20441;SDS011;10380;52.102;20.614;2022-12-07T10:37:54;14.83;;;9.83;;
20441;SDS011;10380;52.102;20.614;2022-12-07T10:45:45;15.33;;;10.23;;
20441;SDS011;10380;52.102;20.614;2022-12-07T10:54:16;22.67;;;13.57;;
20441;SDS011;10380;52.102;20.614;2022-12-07T10:57:13;19.37;;;12.57;;
20441;SDS011;10380;52.102;20.614;2022-12-07T11:08:00;20.53;;;14.60;;
20441;SDS011;10380;52.102;20.614;2022-12-07T11:13:16;14.90;;;10.90;;
20441;SDS011;10380;52.102;20.614;2022-12-07T11:21:45;14.60;;;10.23;;
20441;SDS011;10380;52.102;20.614;2022-12-07T11:28:00;17.40;;;11.27;;
20441;SDS011;10380;52.102;20.614;2022-12-07T11:30:16;16.70;;;10.53;;
20441;SDS011;10380;52.102;20.614;2022-12-07T11:32:53;27.57;;;18.50;;
20441;SDS011;10380;52.102;20.614;2022-12-07T11:38:17;49.33;;;26.40;;
20441;SDS011;10380;52.102;20.614;2022-12-07T11:41:01;72.80;;;34.03;;
20441;SDS011;10380;52.102;20.614;2022-12-07T11:43:50;78.43;;;36.33;;
20441;SDS011;10380;52.102;20.614;2022-12-07T11:46:24;49.50;;;25.40;;
20441;SDS011;10380;52.102;20.614;2022-12-07T11:51:51;45.70;;;27.13;;
20441;SDS011;10380;52.102;20.614;2022-12-07T11:54:25;19.27;;;12.87;;
20441;SDS011;10380;52.102;20.614;2022-12-07T11:56:56;24.07;;;15.00;;
20441;SDS011;10380;52.102;20.614;2022-12-07T11:59:31;58.07;;;30.87;;
20441;SDS011;10380;52.102;20.614;2022-12-07T12:04:56;19.17;;;13.10;;
20441;SDS011;10380;52.102;20.614;2022-12-07T12:07:29;14.90;;;10.47;;
20441;SDS011;10380;52.102;20.614;2022-12-07T12:10:22;17.30;;;10.80;;
20441;SDS011;10380;52.102;20.614;2022-12-07T12:13:11;23.87;;;13.03;;
20441;SDS011;10380;52.102;20.614;2022-12-07T12:19:23;53.60;;;23.67;;
20441;SDS011;10380;52.102;20.614;2022-12-07T12:22:12;17.83;;;12.07;;
20441;SDS011;10380;52.102;20.614;2022-12-07T12:24:46;16.97;;;10.90;;
20441;SDS011;10380;52.102;20.614;2022-12-07T12:27:23;17.23;;;11.13;;
20441;SDS011;10380;52.102;20.614;2022-12-07T12:29:55;15.53;;;10.53;;
20441;SDS011;10380;52.102;20.614;2022-12-07T12:32:41;13.23;;;9.37;;
20441;SDS011;10380;52.102;20.614;2022-12-07T12:40:51;14.47;;;8.60;;
20441;SDS011;10380;52.102;20.614;2022-12-07T13:01:49;15.07;;;9.70;;
20441;SDS011;10380;52.102;20.614;2022-12-07T13:15:42;11.60;;;9.20;;
20441;SDS011;10380;52.102;20.614;2022-12-07T13:23:32;13.00;;;9.30;;
20441;SDS011;10380;52.102;20.614;2022-12-07T13:26:11;14.97;;;9.23;;
20441;SDS011;10380;52.102;20.614;2022-12-07T13:28:46;13.40;;;9.17;;
20441;SDS011;10380;52.102;20.614;2022-12-07T13:31:36;14.83;;;9.03;;
20441;SDS011;10380;52.102;20.614;2022-12-07T13:36:56;17.80;;;10.17;;
20441;SDS011;10380;52.102;20.614;2022-12-07T13:39:25;16.70;;;10.33;;
20441;SDS011;10380;52.102;20.614;2022-12-07T13:41:57;15.30;;;9.17;;
20441;SDS011;10380;52.102;20.614;2022-12-07T13:44:27;15.47;;;10.67;;
20441;SDS011;10380;52.102;20.614;2022-12-07T13:46:57;16.00;;;11.13;;
20441;SDS011;10380;52.102;20.614;2022-12-07T13:49:30;15.63;;;10.87;;
20441;SDS011;10380;52.102;20.614;2022-12-07T13:52:15;14.10;;;10.23;;
20441;SDS011;10380;52.102;20.614;2022-12-07T13:54:45;17.60;;;11.20;;
20441;SDS011;10380;52.102;20.614;2022-12-07T13:57:18;17.03;;;11.80;;
20441;SDS011;10380;52.102;20.614;2022-12-07T13:59:45;17.73;;;12.00;;
20441;SDS011;10380;52.102;20.614;2022-12-07T14:04:49;15.87;;;11.00;;
20441;SDS011;10380;52.102;20.614;2022-12-07T14:07:24;19.70;;;11.63;;
20441;SDS011;10380;52.102;20.614;2022-12-07T14:09:57;14.70;;;10.60;;
20441;SDS011;10380;52.102;20.614;2022-12-07T14:12:29;12.73;;;8.97;;
20441;SDS011;10380;52.102;20.614;2022-12-07T14:14:56;18.13;;;11.37;;
20441;SDS011;10380;52.102;20.614;2022-12-07T14:17:25;18.80;;;12.33;;
20441;SDS011;10380;52.102;20.614;2022-12-07T14:19:55;24.43;;;14.73;;
20441;SDS011;10380;52.102;20.614;2022-12-07T14:22:35;28.43;;;17.83;;
20441;SDS011;10380;52.102;20.614;2022-12-07T14:27:46;18.40;;;12.10;;
20441;SDS011;10380;52.102;20.614;2022-12-07T14:30:15;17.57;;;11.67;;
20441;SDS011;10380;52.102;20.614;2022-12-07T14:32:44;17.80;;;11.90;;
20441;SDS011;10380;52.102;20.614;2022-12-07T14:35:15;16.43;;;10.63;;
20441;SDS011;10380;52.102;20.614;2022-12-07T14:37:46;18.40;;;11.37;;
20441;SDS011;10380;52.102;20.614;2022-12-07T14:40:16;16.40;;;10.67;;
20441;SDS011;10380;52.102;20.614;2022-12-07T14:42:49;17.23;;;10.23;;
20441;SDS011;10380;52.102;20.614;2022-12-07T14:45:19;15.87;;;10.40;;
20441;SDS011;10380;52.102;20.614;2022-12-07T14:47:48;33.03;;;17.43;;
20441;SDS011;10380;52.102;20.614;2022-12-07T14:50:36;65.60;;;31.43;;
20441;SDS011;10380;52.102;20.614;2022-12-07T14:53:28;22.17;;;14.27;;
20441;SDS011;10380;52.102;20.614;2022-12-07T14:55:58;14.50;;;10.53;;
20441;SDS011;10380;52.102;20.614;2022-12-07T14:58:24;23.03;;;13.27;;
20441;SDS011;10380;52.102;20.614;2022-12-07T15:00:52;15.23;;;9.67;;
20441;SDS011;10380;52.102;20.614;2022-12-07T15:03:19;16.80;;;10.93;;
20441;SDS011;10380;52.102;20.614;2022-12-07T15:05:48;13.67;;;9.07;;
20441;SDS011;10380;52.102;20.614;2022-12-07T15:08:15;14.33;;;8.70;;
20441;SDS011;10380;52.102;20.614;2022-12-07T15:10:43;18.23;;;11.13;;
20441;SDS011;10380;52.102;20.614;2022-12-07T15:13:11;18.60;;;11.27;;
20441;SDS011;10380;52.102;20.614;2022-12-07T15:15:58;14.50;;;8.93;;
20441;SDS011;10380;52.102;20.614;2022-12-07T15:18:26;12.67;;;7.67;;
20441;SDS011;10380;52.102;20.614;2022-12-07T15:20:52;19.00;;;11.40;;
20441;SDS011;10380;52.102;20.614;2022-12-07T15:23:19;16.03;;;10.00;;
20441;SDS011;10380;52.102;20.614;2022-12-07T15:25:47;18.67;;;9.97;;
20441;SDS011;10380;52.102;20.614;2022-12-07T15:28:15;15.10;;;9.67;;
20441;SDS011;10380;52.102;20.614;2022-12-07T15:30:42;15.17;;;9.83;;
20441;SDS011;10380;52.102;20.614;2022-12-07T15:33:11;16.57;;;9.47;;
20441;SDS011;10380;52.102;20.614;2022-12-07T15:35:40;17.17;;;9.90;;
20441;SDS011;10380;52.102;20.614;2022-12-07T15:38:07;16.37;;;9.60;;
20441;SDS011;10380;52.102;20.614;2022-12-07T15:40:34;15.07;;;9.60;;
20441;SDS011;10380;52.102;20.614;2022-12-07T15:43:03;15.23;;;9.03;;
20441;SDS011;10380;52.102;20.614;2022-12-07T15:45:30;16.93;;;9.67;;
20441;SDS011;10380;52.102;20.614;2022-12-07T15:47:57;15.40;;;9.30;;
20441;SDS011;10380;52.102;20.614;2022-12-07T15:50:44;16.03;;;10.47;;
20441;SDS011;10380;52.102;20.614;2022-12-07T15:53:11;16.77;;;10.17;;
20441;SDS011;10380;52.102;20.614;2022-12-07T15:55:39;18.27;;;12.00;;
20441;SDS011;10380;52.102;20.614;2022-12-07T15:58:06;16.90;;;11.30;;
20441;SDS011;10380;52.102;20.614;2022-12-07T16:00:34;21.50;;;11.83;;
20441;SDS011;10380;52.102;20.614;2022-12-07T16:03:01;22.53;;;13.20;;
20441;SDS011;10380;52.102;20.614;2022-12-07T16:05:29;20.50;;;13.00;;
20441;SDS011;10380;52.102;20.614;2022-12-07T16:07:55;18.60;;;11.17;;
20441;SDS011;10380;52.102;20.614;2022-12-07T16:10:24;20.27;;;12.33;;
20441;SDS011;10380;52.102;20.614;2022-12-07T16:12:52;20.67;;;12.77;;
20441;SDS011;10380;52.102;20.614;2022-12-07T16:15:20;19.10;;;11.73;;
20441;SDS011;10380;52.102;20.614;2022-12-07T16:17:50;20.90;;;13.63;;
20441;SDS011;10380;52.102;20.614;2022-12-07T16:20:18;23.17;;;12.53;;
20441;SDS011;10380;52.102;20.614;2022-12-07T16:22:47;18.63;;;11.97;;
20441;SDS011;10380;52.102;20.614;2022-12-07T16:25:18;25.23;;;14.90;;
20441;SDS011;10380;52.102;20.614;2022-12-07T16:27:45;19.23;;;11.23;;
20441;SDS011;10380;52.102;20.614;2022-12-07T16:30:12;20.57;;;13.13;;
20441;SDS011;10380;52.102;20.614;2022-12-07T16:32:42;19.03;;;11.83;;
20441;SDS011;10380;52.102;20.614;2022-12-07T16:35:09;16.20;;;11.37;;
20441;SDS011;10380;52.102;20.614;2022-12-07T16:37:38;26.83;;;16.20;;
20441;SDS011;10380;52.102;20.614;2022-12-07T16:40:05;28.77;;;16.87;;
20441;SDS011;10380;52.102;20.614;2022-12-07T16:42:32;32.73;;;21.33;;
20441;SDS011;10380;52.102;20.614;2022-12-07T16:45:00;39.93;;;22.97;;
20441;SDS011;10380;52.102;20.614;2022-12-07T16:47:28;38.87;;;20.90;;
20441;SDS011;10380;52.102;20.614;2022-12-07T16:49:55;31.20;;;21.00;;
20441;SDS011;10380;52.102;20.614;2022-12-07T16:52:22;36.23;;;22.60;;
20441;SDS011;10380;52.102;20.614;2022-12-07T16:54:48;29.03;;;17.23;;
20441;SDS011;10380;52.102;20.614;2022-12-07T16:57:16;27.43;;;15.50;;